Terminal Aerodrome Forecast
Issued by NWS

Current Version | Previous Version | Text Only | Print | Product List | Glossary On
Versions: 1 2 3 4 5 6 7 8 9 10 11 12 13 14 15 16 17 18 19 20 21
000
FTUS41 KILN 241700
TAFLUK
TAF
KLUK 241730Z 2418/2518 01010KT P6SM SCT040
      TEMPO 2418/2422 BKN040
     FM242300 02004KT P6SM SCT040
     FM250300 00000KT P6SM SKC
     FM250600 00000KT 3SM BR SKC
     FM250800 00000KT 1/4SM FG SCT002
     FM251200 VRB02KT P6SM FEW002
     FM251500 19004KT P6SM SCT040=

USA.gov is the U.S. government's official web portal to all federal, state and local government web resources and services.